sensor_id;sensor_type;location;lat;lon;timestamp;P1;durP1;ratioP1;P2;durP2;ratioP2
24034;SDS011;12242;50.952;4.678;2023-02-01T00:01:30;17.48;;;4.40;;
24034;SDS011;12242;50.952;4.678;2023-02-01T00:03:57;17.42;;;3.67;;
24034;SDS011;12242;50.952;4.678;2023-02-01T00:06:27;23.65;;;4.13;;
24034;SDS011;12242;50.952;4.678;2023-02-01T00:08:55;19.67;;;3.80;;
24034;SDS011;12242;50.952;4.678;2023-02-01T00:11:22;16.42;;;3.45;;
24034;SDS011;12242;50.952;4.678;2023-02-01T00:13:50;15.60;;;3.33;;
24034;SDS011;12242;50.952;4.678;2023-02-01T00:16:21;14.82;;;4.03;;
24034;SDS011;12242;50.952;4.678;2023-02-01T00:18:50;15.55;;;4.00;;
24034;SDS011;12242;50.952;4.678;2023-02-01T00:21:22;15.73;;;3.67;;
24034;SDS011;12242;50.952;4.678;2023-02-01T00:23:49;15.30;;;3.25;;
24034;SDS011;12242;50.952;4.678;2023-02-01T00:26:20;16.23;;;3.33;;
24034;SDS011;12242;50.952;4.678;2023-02-01T00:28:55;15.52;;;3.03;;
24034;SDS011;12242;50.952;4.678;2023-02-01T00:31:22;13.60;;;2.75;;
24034;SDS011;12242;50.952;4.678;2023-02-01T00:33:50;14.15;;;2.72;;
24034;SDS011;12242;50.952;4.678;2023-02-01T00:36:17;11.60;;;2.75;;
24034;SDS011;12242;50.952;4.678;2023-02-01T00:38:49;12.23;;;3.17;;
24034;SDS011;12242;50.952;4.678;2023-02-01T00:41:18;14.27;;;2.97;;
24034;SDS011;12242;50.952;4.678;2023-02-01T00:43:46;11.43;;;2.53;;
24034;SDS011;12242;50.952;4.678;2023-02-01T00:46:15;12.80;;;3.10;;
24034;SDS011;12242;50.952;4.678;2023-02-01T00:48:46;15.13;;;2.85;;
24034;SDS011;12242;50.952;4.678;2023-02-01T00:51:17;10.30;;;3.05;;
24034;SDS011;12242;50.952;4.678;2023-02-01T00:53:47;9.20;;;2.97;;
24034;SDS011;12242;50.952;4.678;2023-02-01T00:56:17;13.55;;;2.97;;
24034;SDS011;12242;50.952;4.678;2023-02-01T00:58:44;12.75;;;2.90;;
24034;SDS011;12242;50.952;4.678;2023-02-01T01:01:13;16.52;;;3.40;;
24034;SDS011;12242;50.952;4.678;2023-02-01T01:03:42;21.67;;;3.33;;
24034;SDS011;12242;50.952;4.678;2023-02-01T01:06:15;11.02;;;3.22;;
24034;SDS011;12242;50.952;4.678;2023-02-01T01:08:46;12.38;;;2.38;;
24034;SDS011;12242;50.952;4.678;2023-02-01T01:11:17;16.88;;;2.75;;
24034;SDS011;12242;50.952;4.678;2023-02-01T01:13:47;15.30;;;2.15;;
24034;SDS011;12242;50.952;4.678;2023-02-01T01:16:21;9.70;;;2.15;;
24034;SDS011;12242;50.952;4.678;2023-02-01T01:18:49;11.82;;;2.50;;
24034;SDS011;12242;50.952;4.678;2023-02-01T01:21:19;13.45;;;2.67;;
24034;SDS011;12242;50.952;4.678;2023-02-01T01:23:47;13.50;;;3.30;;
24034;SDS011;12242;50.952;4.678;2023-02-01T01:26:24;10.55;;;2.75;;
24034;SDS011;12242;50.952;4.678;2023-02-01T01:28:54;9.23;;;2.42;;
24034;SDS011;12242;50.952;4.678;2023-02-01T01:31:23;9.95;;;2.50;;
24034;SDS011;12242;50.952;4.678;2023-02-01T01:33:51;15.98;;;2.50;;
24034;SDS011;12242;50.952;4.678;2023-02-01T01:36:21;14.70;;;2.88;;
24034;SDS011;12242;50.952;4.678;2023-02-01T01:38:55;10.65;;;2.20;;
24034;SDS011;12242;50.952;4.678;2023-02-01T01:41:28;12.55;;;2.55;;
24034;SDS011;12242;50.952;4.678;2023-02-01T01:43:58;12.02;;;2.63;;
24034;SDS011;12242;50.952;4.678;2023-02-01T01:46:28;13.88;;;2.25;;
24034;SDS011;12242;50.952;4.678;2023-02-01T01:49:03;16.48;;;2.50;;
24034;SDS011;12242;50.952;4.678;2023-02-01T01:51:42;13.45;;;2.92;;
24034;SDS011;12242;50.952;4.678;2023-02-01T01:54:21;12.80;;;2.13;;
24034;SDS011;12242;50.952;4.678;2023-02-01T01:57:09;11.68;;;2.13;;
24034;SDS011;12242;50.952;4.678;2023-02-01T01:59:42;11.60;;;2.45;;
24034;SDS011;12242;50.952;4.678;2023-02-01T02:02:13;13.88;;;2.22;;
24034;SDS011;12242;50.952;4.678;2023-02-01T02:04:43;11.35;;;2.00;;
24034;SDS011;12242;50.952;4.678;2023-02-01T02:07:11;16.83;;;2.47;;
24034;SDS011;12242;50.952;4.678;2023-02-01T02:09:44;9.60;;;2.38;;
24034;SDS011;12242;50.952;4.678;2023-02-01T02:12:28;17.65;;;2.70;;
24034;SDS011;12242;50.952;4.678;2023-02-01T02:14:55;14.15;;;2.00;;
24034;SDS011;12242;50.952;4.678;2023-02-01T02:17:47;12.45;;;1.70;;
24034;SDS011;12242;50.952;4.678;2023-02-01T02:34:21;9.27;;;1.45;;
24034;SDS011;12242;50.952;4.678;2023-02-01T02:42:43;12.25;;;2.25;;
24034;SDS011;12242;50.952;4.678;2023-02-01T02:48:23;13.15;;;2.00;;
24034;SDS011;12242;50.952;4.678;2023-02-01T02:51:20;12.98;;;2.00;;
24034;SDS011;12242;50.952;4.678;2023-02-01T02:54:12;15.10;;;2.47;;
24034;SDS011;12242;50.952;4.678;2023-02-01T02:57:03;10.13;;;2.03;;
24034;SDS011;12242;50.952;4.678;2023-02-01T02:59:53;8.40;;;1.92;;
24034;SDS011;12242;50.952;4.678;2023-02-01T03:02:41;14.98;;;2.15;;
24034;SDS011;12242;50.952;4.678;2023-02-01T03:05:34;12.65;;;2.00;;
24034;SDS011;12242;50.952;4.678;2023-02-01T03:13:49;11.68;;;1.92;;
24034;SDS011;12242;50.952;4.678;2023-02-01T03:16:34;13.63;;;2.08;;
24034;SDS011;12242;50.952;4.678;2023-02-01T03:21:45;11.65;;;2.30;;
24034;SDS011;12242;50.952;4.678;2023-02-01T03:24:23;14.23;;;1.80;;
24034;SDS011;12242;50.952;4.678;2023-02-01T03:29:51;15.48;;;2.30;;
24034;SDS011;12242;50.952;4.678;2023-02-01T03:34:52;10.50;;;1.92;;
24034;SDS011;12242;50.952;4.678;2023-02-01T03:37:25;8.13;;;1.50;;
24034;SDS011;12242;50.952;4.678;2023-02-01T03:39:56;11.68;;;2.15;;
24034;SDS011;12242;50.952;4.678;2023-02-01T03:42:43;11.10;;;2.00;;
24034;SDS011;12242;50.952;4.678;2023-02-01T03:45:18;19.77;;;2.47;;
24034;SDS011;12242;50.952;4.678;2023-02-01T03:47:56;10.23;;;2.30;;
24034;SDS011;12242;50.952;4.678;2023-02-01T03:50:27;19.60;;;2.28;;
24034;SDS011;12242;50.952;4.678;2023-02-01T03:53:04;19.88;;;3.10;;
24034;SDS011;12242;50.952;4.678;2023-02-01T03:55:37;12.45;;;2.08;;
24034;SDS011;12242;50.952;4.678;2023-02-01T03:58:16;13.00;;;1.85;;
24034;SDS011;12242;50.952;4.678;2023-02-01T04:00:55;12.15;;;1.85;;
24034;SDS011;12242;50.952;4.678;2023-02-01T04:03:25;11.70;;;2.03;;
24034;SDS011;12242;50.952;4.678;2023-02-01T04:05:54;10.73;;;1.83;;
24034;SDS011;12242;50.952;4.678;2023-02-01T04:08:21;12.40;;;1.63;;
24034;SDS011;12242;50.952;4.678;2023-02-01T04:10:52;11.40;;;2.10;;
24034;SDS011;12242;50.952;4.678;2023-02-01T04:13:19;14.63;;;2.15;;
24034;SDS011;12242;50.952;4.678;2023-02-01T04:15:46;12.07;;;2.08;;
24034;SDS011;12242;50.952;4.678;2023-02-01T04:18:16;7.90;;;1.60;;
24034;SDS011;12242;50.952;4.678;2023-02-01T04:20:44;11.55;;;2.25;;
24034;SDS011;12242;50.952;4.678;2023-02-01T04:23:11;11.80;;;2.63;;
24034;SDS011;12242;50.952;4.678;2023-02-01T04:25:38;10.27;;;2.05;;
24034;SDS011;12242;50.952;4.678;2023-02-01T04:28:08;12.07;;;2.45;;
24034;SDS011;12242;50.952;4.678;2023-02-01T04:30:36;12.23;;;2.13;;
24034;SDS011;12242;50.952;4.678;2023-02-01T04:33:03;13.90;;;1.95;;
24034;SDS011;12242;50.952;4.678;2023-02-01T04:35:34;11.85;;;2.30;;
24034;SDS011;12242;50.952;4.678;2023-02-01T04:38:01;13.93;;;2.13;;
24034;SDS011;12242;50.952;4.678;2023-02-01T04:40:28;10.75;;;2.28;;
24034;SDS011;12242;50.952;4.678;2023-02-01T04:42:56;19.77;;;2.13;;
24034;SDS011;12242;50.952;4.678;2023-02-01T04:45:26;10.20;;;1.65;;
24034;SDS011;12242;50.952;4.678;2023-02-01T04:47:56;8.52;;;2.28;;
24034;SDS011;12242;50.952;4.678;2023-02-01T04:50:26;12.05;;;2.30;;
24034;SDS011;12242;50.952;4.678;2023-02-01T04:52:53;9.98;;;1.83;;
24034;SDS011;12242;50.952;4.678;2023-02-01T04:55:20;14.55;;;2.05;;
24034;SDS011;12242;50.952;4.678;2023-02-01T04:57:52;11.38;;;2.25;;
24034;SDS011;12242;50.952;4.678;2023-02-01T05:00:23;11.43;;;2.17;;
24034;SDS011;12242;50.952;4.678;2023-02-01T05:02:55;9.63;;;1.88;;
24034;SDS011;12242;50.952;4.678;2023-02-01T05:05:26;16.00;;;2.60;;
24034;SDS011;12242;50.952;4.678;2023-02-01T05:07:55;17.08;;;1.92;;
24034;SDS011;12242;50.952;4.678;2023-02-01T05:10:22;10.85;;;2.30;;
24034;SDS011;12242;50.952;4.678;2023-02-01T05:12:50;8.77;;;2.13;;
24034;SDS011;12242;50.952;4.678;2023-02-01T05:15:39;13.40;;;2.28;;
24034;SDS011;12242;50.952;4.678;2023-02-01T05:18:08;8.02;;;1.70;;
24034;SDS011;12242;50.952;4.678;2023-02-01T05:20:38;8.07;;;1.75;;
24034;SDS011;12242;50.952;4.678;2023-02-01T05:23:07;16.70;;;1.80;;
24034;SDS011;12242;50.952;4.678;2023-02-01T05:25:37;13.60;;;1.90;;
24034;SDS011;12242;50.952;4.678;2023-02-01T05:28:06;18.50;;;2.38;;
24034;SDS011;12242;50.952;4.678;2023-02-01T05:30:36;13.20;;;2.55;;
24034;SDS011;12242;50.952;4.678;2023-02-01T05:33:07;13.18;;;2.10;;
24034;SDS011;12242;50.952;4.678;2023-02-01T05:35:36;14.00;;;1.83;;
24034;SDS011;12242;50.952;4.678;2023-02-01T05:38:06;14.93;;;2.25;;
24034;SDS011;12242;50.952;4.678;2023-02-01T05:40:33;11.07;;;2.25;;
24034;SDS011;12242;50.952;4.678;2023-02-01T05:43:01;14.95;;;2.65;;
24034;SDS011;12242;50.952;4.678;2023-02-01T05:45:31;19.00;;;4.15;;
24034;SDS011;12242;50.952;4.678;2023-02-01T05:47:58;11.75;;;2.90;;
24034;SDS011;12242;50.952;4.678;2023-02-01T05:50:25;10.48;;;2.33;;
24034;SDS011;12242;50.952;4.678;2023-02-01T05:52:53;17.15;;;3.47;;
24034;SDS011;12242;50.952;4.678;2023-02-01T05:55:22;16.13;;;3.00;;
24034;SDS011;12242;50.952;4.678;2023-02-01T05:57:52;16.58;;;2.80;;
24034;SDS011;12242;50.952;4.678;2023-02-01T06:00:19;17.45;;;2.53;;
24034;SDS011;12242;50.952;4.678;2023-02-01T06:02:48;18.13;;;3.28;;
24034;SDS011;12242;50.952;4.678;2023-02-01T06:05:15;8.77;;;1.80;;
24034;SDS011;12242;50.952;4.678;2023-02-01T06:07:42;15.52;;;2.88;;
24034;SDS011;12242;50.952;4.678;2023-02-01T06:12:43;16.15;;;3.72;;
24034;SDS011;12242;50.952;4.678;2023-02-01T06:15:15;13.90;;;3.55;;
24034;SDS011;12242;50.952;4.678;2023-02-01T06:17:45;18.20;;;2.65;;
24034;SDS011;12242;50.952;4.678;2023-02-01T06:20:13;11.07;;;2.53;;
24034;SDS011;12242;50.952;4.678;2023-02-01T06:22:41;18.00;;;3.38;;
24034;SDS011;12242;50.952;4.678;2023-02-01T06:25:09;15.38;;;2.63;;
24034;SDS011;12242;50.952;4.678;2023-02-01T06:27:37;15.52;;;2.95;;
24034;SDS011;12242;50.952;4.678;2023-02-01T06:30:05;15.18;;;2.47;;
24034;SDS011;12242;50.952;4.678;2023-02-01T06:32:33;13.35;;;2.60;;
24034;SDS011;12242;50.952;4.678;2023-02-01T06:35:00;12.05;;;2.72;;
24034;SDS011;12242;50.952;4.678;2023-02-01T06:37:27;11.93;;;2.80;;
24034;SDS011;12242;50.952;4.678;2023-02-01T06:39:56;14.75;;;1.63;;
24034;SDS011;12242;50.952;4.678;2023-02-01T06:42:23;16.48;;;3.20;;
24034;SDS011;12242;50.952;4.678;2023-02-01T06:44:52;12.73;;;2.47;;
24034;SDS011;12242;50.952;4.678;2023-02-01T06:47:20;15.30;;;2.72;;
24034;SDS011;12242;50.952;4.678;2023-02-01T06:49:49;16.67;;;2.58;;
24034;SDS011;12242;50.952;4.678;2023-02-01T06:52:17;12.57;;;2.28;;
24034;SDS011;12242;50.952;4.678;2023-02-01T06:54:47;12.93;;;2.58;;
24034;SDS011;12242;50.952;4.678;2023-02-01T06:57:14;16.02;;;2.65;;
24034;SDS011;12242;50.952;4.678;2023-02-01T06:59:42;7.68;;;1.63;;
24034;SDS011;12242;50.952;4.678;2023-02-01T07:02:10;16.58;;;2.78;;
24034;SDS011;12242;50.952;4.678;2023-02-01T07:04:38;23.48;;;3.25;;
24034;SDS011;12242;50.952;4.678;2023-02-01T07:07:05;14.93;;;1.92;;
24034;SDS011;12242;50.952;4.678;2023-02-01T07:09:37;15.52;;;2.22;;
24034;SDS011;12242;50.952;4.678;2023-02-01T07:12:04;16.65;;;2.78;;
24034;SDS011;12242;50.952;4.678;2023-02-01T07:14:32;11.43;;;2.15;;
24034;SDS011;12242;50.952;4.678;2023-02-01T07:16:59;8.93;;;1.73;;
24034;SDS011;12242;50.952;4.678;2023-02-01T07:19:28;14.07;;;2.17;;
24034;SDS011;12242;50.952;4.678;2023-02-01T07:21:58;12.63;;;2.67;;
24034;SDS011;12242;50.952;4.678;2023-02-01T07:24:26;17.00;;;2.80;;
24034;SDS011;12242;50.952;4.678;2023-02-01T07:26:57;16.98;;;2.47;;
24034;SDS011;12242;50.952;4.678;2023-02-01T07:29:29;16.77;;;2.53;;
24034;SDS011;12242;50.952;4.678;2023-02-01T07:32:01;6.65;;;1.77;;
24034;SDS011;12242;50.952;4.678;2023-02-01T07:34:29;15.10;;;2.00;;
24034;SDS011;12242;50.952;4.678;2023-02-01T07:36:57;15.68;;;2.63;;
24034;SDS011;12242;50.952;4.678;2023-02-01T07:39:26;18.50;;;2.58;;
24034;SDS011;12242;50.952;4.678;2023-02-01T07:41:57;14.93;;;2.13;;
24034;SDS011;12242;50.952;4.678;2023-02-01T07:44:24;16.77;;;2.35;;
24034;SDS011;12242;50.952;4.678;2023-02-01T07:46:52;10.48;;;2.22;;
24034;SDS011;12242;50.952;4.678;2023-02-01T07:49:19;15.40;;;2.25;;
24034;SDS011;12242;50.952;4.678;2023-02-01T07:51:51;15.02;;;2.40;;
24034;SDS011;12242;50.952;4.678;2023-02-01T07:54:19;9.55;;;2.30;;
24034;SDS011;12242;50.952;4.678;2023-02-01T07:56:48;13.30;;;2.05;;
24034;SDS011;12242;50.952;4.678;2023-02-01T07:59:16;9.50;;;1.60;;
24034;SDS011;12242;50.952;4.678;2023-02-01T08:01:43;16.73;;;3.00;;
24034;SDS011;12242;50.952;4.678;2023-02-01T08:04:13;15.82;;;2.28;;
24034;SDS011;12242;50.952;4.678;2023-02-01T08:06:41;12.50;;;2.42;;
24034;SDS011;12242;50.952;4.678;2023-02-01T08:09:08;11.48;;;2.00;;
24034;SDS011;12242;50.952;4.678;2023-02-01T08:11:39;15.23;;;2.20;;
24034;SDS011;12242;50.952;4.678;2023-02-01T08:14:07;16.00;;;2.58;;
24034;SDS011;12242;50.952;4.678;2023-02-01T08:16:34;14.40;;;2.20;;
24034;SDS011;12242;50.952;4.678;2023-02-01T08:19:04;13.02;;;2.50;;
24034;SDS011;12242;50.952;4.678;2023-02-01T08:21:31;23.98;;;2.35;;
24034;SDS011;12242;50.952;4.678;2023-02-01T08:26:38;9.55;;;1.95;;
24034;SDS011;12242;50.952;4.678;2023-02-01T08:29:06;8.88;;;2.03;;
24034;SDS011;12242;50.952;4.678;2023-02-01T08:31:34;10.35;;;2.08;;
24034;SDS011;12242;50.952;4.678;2023-02-01T08:34:02;15.20;;;2.42;;
24034;SDS011;12242;50.952;4.678;2023-02-01T08:36:35;15.43;;;2.60;;
24034;SDS011;12242;50.952;4.678;2023-02-01T08:39:02;11.60;;;2.08;;
24034;SDS011;12242;50.952;4.678;2023-02-01T08:41:38;13.88;;;2.17;;
24034;SDS011;12242;50.952;4.678;2023-02-01T08:44:08;16.00;;;1.77;;
24034;SDS011;12242;50.952;4.678;2023-02-01T08:46:38;13.25;;;2.15;;
24034;SDS011;12242;50.952;4.678;2023-02-01T08:49:07;15.30;;;2.40;;
24034;SDS011;12242;50.952;4.678;2023-02-01T08:51:37;14.60;;;2.25;;
24034;SDS011;12242;50.952;4.678;2023-02-01T08:54:04;16.08;;;2.60;;
24034;SDS011;12242;50.952;4.678;2023-02-01T08:56:34;16.33;;;2.70;;
24034;SDS011;12242;50.952;4.678;2023-02-01T08:59:01;17.35;;;2.20;;
24034;SDS011;12242;50.952;4.678;2023-02-01T09:01:29;18.48;;;2.03;;
24034;SDS011;12242;50.952;4.678;2023-02-01T09:03:58;19.17;;;2.35;;
24034;SDS011;12242;50.952;4.678;2023-02-01T09:06:28;13.30;;;2.13;;
24034;SDS011;12242;50.952;4.678;2023-02-01T09:08:58;20.90;;;2.53;;
24034;SDS011;12242;50.952;4.678;2023-02-01T09:11:28;8.63;;;2.17;;
24034;SDS011;12242;50.952;4.678;2023-02-01T09:13:55;12.98;;;2.20;;
24034;SDS011;12242;50.952;4.678;2023-02-01T09:16:23;16.35;;;2.03;;
24034;SDS011;12242;50.952;4.678;2023-02-01T09:18:50;15.02;;;1.73;;
24034;SDS011;12242;50.952;4.678;2023-02-01T09:21:37;11.15;;;2.38;;
24034;SDS011;12242;50.952;4.678;2023-02-01T09:24:05;9.25;;;1.70;;
24034;SDS011;12242;50.952;4.678;2023-02-01T09:26:39;8.02;;;1.98;;
24034;SDS011;12242;50.952;4.678;2023-02-01T09:29:09;16.23;;;2.42;;
24034;SDS011;12242;50.952;4.678;2023-02-01T09:31:39;11.90;;;2.40;;
24034;SDS011;12242;50.952;4.678;2023-02-01T09:34:14;15.65;;;2.50;;
24034;SDS011;12242;50.952;4.678;2023-02-01T09:36:42;13.48;;;2.30;;
24034;SDS011;12242;50.952;4.678;2023-02-01T09:39:09;14.13;;;2.15;;
24034;SDS011;12242;50.952;4.678;2023-02-01T09:47:26;12.48;;;2.22;;
24034;SDS011;12242;50.952;4.678;2023-02-01T09:55:13;10.35;;;2.20;;
24034;SDS011;12242;50.952;4.678;2023-02-01T09:57:51;12.48;;;2.00;;
24034;SDS011;12242;50.952;4.678;2023-02-01T10:00:24;12.20;;;2.30;;
24034;SDS011;12242;50.952;4.678;2023-02-01T10:02:55;12.52;;;2.42;;
24034;SDS011;12242;50.952;4.678;2023-02-01T10:06:09;14.45;;;2.65;;
24034;SDS011;12242;50.952;4.678;2023-02-01T10:11:26;12.35;;;2.65;;
24034;SDS011;12242;50.952;4.678;2023-02-01T10:14:12;8.40;;;1.70;;
24034;SDS011;12242;50.952;4.678;2023-02-01T10:19:50;12.43;;;1.70;;
24034;SDS011;12242;50.952;4.678;2023-02-01T10:22:44;8.38;;;1.65;;
24034;SDS011;12242;50.952;4.678;2023-02-01T10:28:15;13.40;;;1.88;;
24034;SDS011;12242;50.952;4.678;2023-02-01T10:30:48;9.70;;;1.80;;
24034;SDS011;12242;50.952;4.678;2023-02-01T10:33:22;12.75;;;2.25;;
24034;SDS011;12242;50.952;4.678;2023-02-01T10:38:49;11.93;;;2.00;;
24034;SDS011;12242;50.952;4.678;2023-02-01T10:41:22;12.88;;;1.70;;
24034;SDS011;12242;50.952;4.678;2023-02-01T10:43:53;9.90;;;1.55;;
24034;SDS011;12242;50.952;4.678;2023-02-01T10:46:25;11.20;;;1.55;;
24034;SDS011;12242;50.952;4.678;2023-02-01T10:48:55;10.25;;;1.60;;
24034;SDS011;12242;50.952;4.678;2023-02-01T10:51:29;10.77;;;1.65;;
24034;SDS011;12242;50.952;4.678;2023-02-01T10:54:19;8.05;;;1.50;;
24034;SDS011;12242;50.952;4.678;2023-02-01T10:56:49;27.15;;;3.90;;
24034;SDS011;12242;50.952;4.678;2023-02-01T10:59:17;26.45;;;3.75;;
24034;SDS011;12242;50.952;4.678;2023-02-01T11:01:58;10.68;;;1.95;;
24034;SDS011;12242;50.952;4.678;2023-02-01T11:04:28;6.78;;;1.67;;
24034;SDS011;12242;50.952;4.678;2023-02-01T11:07:13;13.38;;;2.00;;
24034;SDS011;12242;50.952;4.678;2023-02-01T11:09:52;9.25;;;1.50;;
24034;SDS011;12242;50.952;4.678;2023-02-01T11:12:32;9.75;;;1.67;;
24034;SDS011;12242;50.952;4.678;2023-02-01T11:15:14;7.97;;;1.73;;
24034;SDS011;12242;50.952;4.678;2023-02-01T11:17:47;8.40;;;1.10;;
24034;SDS011;12242;50.952;4.678;2023-02-01T11:20:19;9.30;;;1.48;;
24034;SDS011;12242;50.952;4.678;2023-02-01T11:22:58;6.13;;;1.38;;
24034;SDS011;12242;50.952;4.678;2023-02-01T11:25:26;21.73;;;3.03;;
24034;SDS011;12242;50.952;4.678;2023-02-01T11:27:54;14.63;;;1.85;;
24034;SDS011;12242;50.952;4.678;2023-02-01T11:30:34;8.68;;;1.48;;
24034;SDS011;12242;50.952;4.678;2023-02-01T11:33:05;7.28;;;1.40;;
24034;SDS011;12242;50.952;4.678;2023-02-01T11:35:37;18.95;;;2.13;;
24034;SDS011;12242;50.952;4.678;2023-02-01T11:40:48;9.63;;;1.70;;
24034;SDS011;12242;50.952;4.678;2023-02-01T11:43:26;12.35;;;1.75;;
24034;SDS011;12242;50.952;4.678;2023-02-01T11:45:59;14.43;;;1.67;;
24034;SDS011;12242;50.952;4.678;2023-02-01T11:48:32;7.15;;;1.70;;
24034;SDS011;12242;50.952;4.678;2023-02-01T11:51:21;8.18;;;1.75;;
24034;SDS011;12242;50.952;4.678;2023-02-01T12:08:20;13.20;;;1.27;;
24034;SDS011;12242;50.952;4.678;2023-02-01T12:13:51;10.75;;;1.55;;
24034;SDS011;12242;50.952;4.678;2023-02-01T12:33:14;4.55;;;1.13;;
24034;SDS011;12242;50.952;4.678;2023-02-01T12:42:10;13.02;;;2.10;;
24034;SDS011;12242;50.952;4.678;2023-02-01T12:45:12;4.95;;;0.98;;
24034;SDS011;12242;50.952;4.678;2023-02-01T12:47:51;6.20;;;1.40;;
24034;SDS011;12242;50.952;4.678;2023-02-01T12:50:26;6.68;;;0.85;;
24034;SDS011;12242;50.952;4.678;2023-02-01T12:53:13;10.73;;;1.20;;
24034;SDS011;12242;50.952;4.678;2023-02-01T12:55:52;8.82;;;1.20;;
24034;SDS011;12242;50.952;4.678;2023-02-01T13:01:04;9.43;;;1.30;;
24034;SDS011;12242;50.952;4.678;2023-02-01T13:03:38;12.60;;;1.10;;
24034;SDS011;12242;50.952;4.678;2023-02-01T13:06:29;6.00;;;0.75;;
24034;SDS011;12242;50.952;4.678;2023-02-01T13:11:50;5.50;;;1.08;;
24034;SDS011;12242;50.952;4.678;2023-02-01T13:14:25;4.45;;;0.93;;
24034;SDS011;12242;50.952;4.678;2023-02-01T13:25:00;8.65;;;1.45;;
24034;SDS011;12242;50.952;4.678;2023-02-01T13:27:59;4.07;;;0.95;;
24034;SDS011;12242;50.952;4.678;2023-02-01T13:31:15;9.38;;;1.83;;
24034;SDS011;12242;50.952;4.678;2023-02-01T13:42:31;6.68;;;1.30;;
24034;SDS011;12242;50.952;4.678;2023-02-01T13:45:05;11.23;;;1.00;;
24034;SDS011;12242;50.952;4.678;2023-02-01T13:47:42;4.65;;;1.20;;
24034;SDS011;12242;50.952;4.678;2023-02-01T13:56:06;15.23;;;1.73;;
24034;SDS011;12242;50.952;4.678;2023-02-01T13:58:45;5.65;;;1.00;;
24034;SDS011;12242;50.952;4.678;2023-02-01T14:03:51;8.45;;;1.50;;
24034;SDS011;12242;50.952;4.678;2023-02-01T14:11:42;10.05;;;1.30;;
24034;SDS011;12242;50.952;4.678;2023-02-01T14:19:27;4.95;;;1.00;;
24034;SDS011;12242;50.952;4.678;2023-02-01T14:21:59;7.93;;;1.15;;
24034;SDS011;12242;50.952;4.678;2023-02-01T14:24:54;8.32;;;1.50;;
24034;SDS011;12242;50.952;4.678;2023-02-01T14:27:28;5.45;;;1.27;;
24034;SDS011;12242;50.952;4.678;2023-02-01T14:30:02;9.25;;;1.20;;
24034;SDS011;12242;50.952;4.678;2023-02-01T14:32:34;10.53;;;1.20;;
24034;SDS011;12242;50.952;4.678;2023-02-01T14:35:06;6.57;;;1.30;;
24034;SDS011;12242;50.952;4.678;2023-02-01T14:37:43;12.93;;;1.80;;
24034;SDS011;12242;50.952;4.678;2023-02-01T14:47:51;13.43;;;1.40;;
24034;SDS011;12242;50.952;4.678;2023-02-01T14:50:44;11.80;;;0.98;;
24034;SDS011;12242;50.952;4.678;2023-02-01T14:53:18;9.80;;;1.48;;
24034;SDS011;12242;50.952;4.678;2023-02-01T14:56:00;13.40;;;1.70;;
24034;SDS011;12242;50.952;4.678;2023-02-01T15:01:17;8.48;;;1.10;;
24034;SDS011;12242;50.952;4.678;2023-02-01T15:08:56;11.20;;;1.58;;
24034;SDS011;12242;50.952;4.678;2023-02-01T15:11:27;4.75;;;1.20;;
24034;SDS011;12242;50.952;4.678;2023-02-01T15:13:55;8.60;;;1.88;;
24034;SDS011;12242;50.952;4.678;2023-02-01T15:16:24;7.72;;;1.42;;
24034;SDS011;12242;50.952;4.678;2023-02-01T15:19:08;13.13;;;1.83;;
24034;SDS011;12242;50.952;4.678;2023-02-01T15:21:47;8.40;;;1.15;;
24034;SDS011;12242;50.952;4.678;2023-02-01T15:24:29;6.28;;;1.20;;
24034;SDS011;12242;50.952;4.678;2023-02-01T15:27:02;9.43;;;1.45;;
24034;SDS011;12242;50.952;4.678;2023-02-01T15:29:34;4.43;;;1.30;;
24034;SDS011;12242;50.952;4.678;2023-02-01T15:32:02;6.97;;;1.42;;
24034;SDS011;12242;50.952;4.678;2023-02-01T15:34:47;8.77;;;1.20;;
24034;SDS011;12242;50.952;4.678;2023-02-01T15:37:20;7.10;;;1.48;;
24034;SDS011;12242;50.952;4.678;2023-02-01T15:40:18;9.00;;;1.30;;
24034;SDS011;12242;50.952;4.678;2023-02-01T15:42:53;11.32;;;4.70;;
24034;SDS011;12242;50.952;4.678;2023-02-01T15:45:24;9.98;;;1.73;;
24034;SDS011;12242;50.952;4.678;2023-02-01T15:47:56;15.85;;;2.08;;
24034;SDS011;12242;50.952;4.678;2023-02-01T15:50:26;11.35;;;1.60;;
24034;SDS011;12242;50.952;4.678;2023-02-01T15:52:56;10.52;;;1.45;;
24034;SDS011;12242;50.952;4.678;2023-02-01T15:55:36;11.43;;;1.30;;
24034;SDS011;12242;50.952;4.678;2023-02-01T15:58:15;6.50;;;1.42;;
24034;SDS011;12242;50.952;4.678;2023-02-01T16:00:47;13.18;;;1.48;;
24034;SDS011;12242;50.952;4.678;2023-02-01T16:06:05;9.52;;;1.27;;
24034;SDS011;12242;50.952;4.678;2023-02-01T16:08:34;7.68;;;1.52;;
24034;SDS011;12242;50.952;4.678;2023-02-01T16:13:46;15.15;;;1.58;;
24034;SDS011;12242;50.952;4.678;2023-02-01T16:16:13;8.50;;;1.52;;
24034;SDS011;12242;50.952;4.678;2023-02-01T16:18:41;8.18;;;2.10;;
24034;SDS011;12242;50.952;4.678;2023-02-01T16:21:08;6.30;;;1.75;;
24034;SDS011;12242;50.952;4.678;2023-02-01T16:23:38;7.55;;;1.77;;
24034;SDS011;12242;50.952;4.678;2023-02-01T16:26:07;9.77;;;1.88;;
24034;SDS011;12242;50.952;4.678;2023-02-01T16:28:38;8.55;;;2.00;;
24034;SDS011;12242;50.952;4.678;2023-02-01T16:31:05;12.73;;;1.77;;
24034;SDS011;12242;50.952;4.678;2023-02-01T16:33:36;7.47;;;2.03;;
24034;SDS011;12242;50.952;4.678;2023-02-01T16:36:07;10.98;;;2.22;;
24034;SDS011;12242;50.952;4.678;2023-02-01T16:38:37;13.32;;;2.42;;
24034;SDS011;12242;50.952;4.678;2023-02-01T16:41:09;8.88;;;1.65;;
24034;SDS011;12242;50.952;4.678;2023-02-01T16:43:41;8.85;;;2.13;;
24034;SDS011;12242;50.952;4.678;2023-02-01T16:46:12;9.57;;;1.73;;
24034;SDS011;12242;50.952;4.678;2023-02-01T16:48:44;12.50;;;1.83;;
24034;SDS011;12242;50.952;4.678;2023-02-01T16:51:17;10.73;;;2.10;;
24034;SDS011;12242;50.952;4.678;2023-02-01T16:53:45;11.85;;;2.00;;
24034;SDS011;12242;50.952;4.678;2023-02-01T16:58:49;13.30;;;2.05;;
24034;SDS011;12242;50.952;4.678;2023-02-01T17:01:20;12.40;;;1.95;;
24034;SDS011;12242;50.952;4.678;2023-02-01T17:03:47;9.80;;;1.90;;
24034;SDS011;12242;50.952;4.678;2023-02-01T17:06:18;6.05;;;1.55;;
24034;SDS011;12242;50.952;4.678;2023-02-01T17:11:20;14.15;;;3.03;;
24034;SDS011;12242;50.952;4.678;2023-02-01T17:13:50;14.40;;;2.33;;
24034;SDS011;12242;50.952;4.678;2023-02-01T17:18:46;12.93;;;2.25;;
24034;SDS011;12242;50.952;4.678;2023-02-01T17:21:23;8.55;;;1.73;;
24034;SDS011;12242;50.952;4.678;2023-02-01T17:23:54;10.50;;;1.88;;
24034;SDS011;12242;50.952;4.678;2023-02-01T17:26:26;8.25;;;2.08;;
24034;SDS011;12242;50.952;4.678;2023-02-01T17:28:54;14.55;;;1.80;;
24034;SDS011;12242;50.952;4.678;2023-02-01T17:31:21;10.90;;;1.48;;
24034;SDS011;12242;50.952;4.678;2023-02-01T17:33:50;11.38;;;2.00;;
24034;SDS011;12242;50.952;4.678;2023-02-01T17:36:17;8.27;;;1.65;;
24034;SDS011;12242;50.952;4.678;2023-02-01T17:38:44;11.75;;;1.85;;
24034;SDS011;12242;50.952;4.678;2023-02-01T17:41:29;12.77;;;2.03;;
24034;SDS011;12242;50.952;4.678;2023-02-01T17:43:56;10.73;;;1.60;;
24034;SDS011;12242;50.952;4.678;2023-02-01T17:46:24;12.13;;;2.55;;
24034;SDS011;12242;50.952;4.678;2023-02-01T17:48:56;12.70;;;3.13;;
24034;SDS011;12242;50.952;4.678;2023-02-01T17:51:26;15.70;;;2.58;;
24034;SDS011;12242;50.952;4.678;2023-02-01T17:53:56;13.60;;;1.98;;
24034;SDS011;12242;50.952;4.678;2023-02-01T17:56:24;10.23;;;1.73;;
24034;SDS011;12242;50.952;4.678;2023-02-01T17:58:53;10.65;;;2.20;;
24034;SDS011;12242;50.952;4.678;2023-02-01T18:01:22;9.10;;;1.92;;
24034;SDS011;12242;50.952;4.678;2023-02-01T18:03:53;16.15;;;2.08;;
24034;SDS011;12242;50.952;4.678;2023-02-01T18:06:21;12.07;;;1.77;;